Ben Schoeman Airport


Codes: FAEL/ELS
Name: Ben Schoeman Airport
City: East London
Country: South Africa
Elevation: 435 ft.
Website:
Wikipedia:

Photos at Ben Schoeman Airport


   Photos courtesy of SpottingLog. You can add your own sightings and photos by signing up for a free trial today.



No photos found.

Weather at Ben Schoeman Airport


Time (UTC)DescriptionTempratureWindCloud coverageVisibilityPressureHumidity
25-Jun-2024 21:00Light Rain17°C2 mph, N76%10000m1032hPa80%
26-Jun-2024 00:00Broken Clouds16°C4 mph, NW65%10000m1031hPa79%
26-Jun-2024 03:00Scattered Clouds16°C4 mph, W25%10000m1031hPa79%
26-Jun-2024 06:00Clear Sky15°C4 mph, NW1%10000m1031hPa78%
26-Jun-2024 09:00Few Clouds19°C4 mph, SW17%10000m1031hPa63%
26-Jun-2024 12:00Few Clouds19°C9 mph, S11%10000m1030hPa64%
26-Jun-2024 15:00Clear Sky18°C7 mph, SW0%10000m1030hPa74%
26-Jun-2024 18:00Clear Sky16°C2 mph, W0%10000m1032hPa78%
26-Jun-2024 21:00Clear Sky15°C4 mph, NW0%10000m1032hPa81%
27-Jun-2024 00:00Clear Sky15°C2 mph, N0%10000m1031hPa81%
27-Jun-2024 03:00Clear Sky15°C4 mph, N0%10000m1030hPa81%
27-Jun-2024 06:00Clear Sky15°C4 mph, N0%10000m1031hPa77%
27-Jun-2024 09:00Clear Sky19°C9 mph, E0%10000m1031hPa60%
27-Jun-2024 12:00Clear Sky21°C11 mph, E0%10000m1028hPa58%
27-Jun-2024 15:00Clear Sky19°C13 mph, NE0%10000m1027hPa71%
27-Jun-2024 18:00Clear Sky17°C11 mph, NE0%10000m1028hPa79%
27-Jun-2024 21:00Clear Sky16°C9 mph, NE0%10000m1027hPa79%
28-Jun-2024 00:00Clear Sky16°C7 mph, NE0%10000m1026hPa66%
28-Jun-2024 03:00Clear Sky16°C7 mph, N0%10000m1025hPa51%
28-Jun-2024 06:00Clear Sky16°C4 mph, N0%10000m1025hPa45%
28-Jun-2024 09:00Clear Sky22°C4 mph, NE0%10000m1024hPa35%
28-Jun-2024 12:00Clear Sky23°C4 mph, E0%10000m1021hPa38%
28-Jun-2024 15:00Clear Sky21°C7 mph, NE0%10000m1020hPa56%
28-Jun-2024 18:00Clear Sky20°C7 mph, N2%10000m1020hPa53%
28-Jun-2024 21:00Clear Sky19°C7 mph, N5%10000m1019hPa46%
29-Jun-2024 00:00Clear Sky19°C7 mph, N7%10000m1018hPa41%
29-Jun-2024 03:00Broken Clouds20°C11 mph, N51%10000m1016hPa39%
29-Jun-2024 06:00Broken Clouds22°C13 mph, NW65%10000m1015hPa40%
29-Jun-2024 09:00Broken Clouds26°C13 mph, NW59%10000m1014hPa34%
29-Jun-2024 12:00Scattered Clouds28°C9 mph, NW48%10000m1012hPa28%
29-Jun-2024 15:00Overcast Clouds26°C4 mph, NW100%10000m1011hPa36%
29-Jun-2024 18:00Broken Clouds24°C11 mph, W69%10000m1013hPa40%
29-Jun-2024 21:00Broken Clouds19°C13 mph, SW61%10000m1015hPa76%
30-Jun-2024 00:00Scattered Clouds17°C11 mph, SW40%10000m1016hPa80%
30-Jun-2024 03:00Few Clouds16°C11 mph, SW17%10000m1017hPa79%
30-Jun-2024 06:00Scattered Clouds16°C9 mph, W40%10000m1019hPa76%
30-Jun-2024 09:00Broken Clouds18°C11 mph, SW56%10000m1020hPa57%
30-Jun-2024 12:00Scattered Clouds20°C13 mph, SW42%10000m1018hPa54%
30-Jun-2024 15:00Few Clouds18°C13 mph, SW16%10000m1020hPa61%
30-Jun-2024 18:00Scattered Clouds17°C11 mph, W47%10000m1023hPa65%